Terminal Aerodrome Forecast
Issued by NWS

Home | Current Version | Previous Version | Text Only | Print | Product List | Glossary On
Versions: 1 2 3 4 5 6 7 8 9 10 11 12 13 14 15 16
000
FTUS45 KREV 231100
TAFCXP
TAF
KCXP 231134Z 2312/2412 VRB03KT P6SM SCT200
     FM232100 29008KT P6SM SCT140 BKN200
     FM240400 VRB04KT P6SM SCT120 BKN180=

USA.gov is the U.S. government's official web portal to all federal, state and local government web resources and services.